Main page
METAR-TAF:

METAR-TAF

Airports :

K14-fa-1c, Netherlands

Oil platform

latitude: 53-16-10N, longitude: 3-37-40E, elevation: 28 m

Current weather observation

The report was made 12 minutes ago, at 01:55 UTC
Wind 21 kt from the South/Southwest
Temperature 14°C
Humidity 88%
Pressure 992 hPa
Visibility 10 km or more
Broken clouds at a height of 700 ft
Overcast at a height of 900 ft

METAR: EHKV 290155Z AUTO 20021KT 9999 BKN007 OVC009 14/12 Q0992

Time: 04:07 (02:07 UTC)


TAF: missing

Weather observations and forecasts of more than 4000 airports (METAR and TAF reports).

The available stations are represented by yellow and red dots on the map.

Hover mouse over dot to see the name of the station.

Then click to see weather observations and forecasts.

To change the map : click on the green buttons with a black cross to zoom in, on the green button with a dash to zoom out, or on the green arrows for adjacent maps.


METAR-TAF: